createdAt,value
2022-11-15T00:00:53.191Z,8.69
2022-11-15T00:03:38.355Z,8.70
2022-11-15T00:06:23.397Z,8.96
2022-11-15T00:09:08.239Z,8.80
2022-11-15T00:11:53.383Z,9.09
2022-11-15T00:14:38.220Z,9.40
2022-11-15T00:17:23.102Z,9.11
2022-11-15T00:20:08.504Z,8.85
2022-11-15T00:22:53.704Z,8.92
2022-11-15T00:25:39.056Z,8.99
2022-11-15T00:28:24.349Z,9.07
2022-11-15T00:31:11.684Z,9.11
2022-11-15T00:33:56.961Z,9.18
2022-11-15T00:36:41.768Z,9.25
2022-11-15T00:39:26.495Z,9.46
2022-11-15T00:42:11.557Z,9.29
2022-11-15T00:44:57.093Z,9.34
2022-11-15T00:47:44.907Z,9.38
2022-11-15T00:50:30.059Z,9.42
2022-11-15T00:53:15.462Z,9.47
2022-11-15T00:56:00.421Z,9.46
2022-11-15T00:58:45.606Z,9.45
2022-11-15T01:01:30.680Z,9.45
2022-11-15T01:04:15.516Z,9.52
2022-11-15T01:07:00.655Z,9.43
2022-11-15T01:09:45.467Z,9.44
2022-11-15T01:12:30.953Z,9.83
2022-11-15T01:15:16.103Z,9.81
2022-11-15T01:18:01.196Z,9.48
2022-11-15T01:20:46.039Z,9.49
2022-11-15T01:23:31.362Z,9.37
2022-11-15T01:26:17.040Z,9.37
2022-11-15T01:29:02.085Z,9.32
2022-11-15T01:31:46.924Z,9.25
2022-11-15T01:34:31.800Z,9.18
2022-11-15T01:37:16.735Z,9.06
2022-11-15T01:40:01.727Z,9.19
2022-11-15T01:42:47.038Z,9.10
2022-11-15T01:45:32.401Z,9.13
2022-11-15T01:48:17.562Z,9.30
2022-11-15T01:51:05.756Z,9.71
2022-11-15T01:53:53.547Z,9.41
2022-11-15T01:56:42.276Z,9.32
2022-11-15T01:59:27.384Z,9.14
2022-11-15T02:02:12.797Z,8.97
2022-11-15T02:04:58.195Z,8.82
2022-11-15T02:07:43.685Z,9.15
2022-11-15T02:10:28.989Z,9.09
2022-11-15T02:13:17.442Z,9.09
2022-11-15T02:16:14.076Z,8.98
2022-11-15T02:19:02.441Z,9.21
2022-11-15T02:22:06.224Z,8.91
2022-11-15T02:24:57.210Z,8.96
2022-11-15T02:27:48.164Z,9.15
2022-11-15T02:30:42.402Z,8.92
2022-11-15T02:33:33.525Z,8.94
2022-11-15T02:36:37.633Z,8.74
2022-11-15T02:39:36.482Z,8.86
2022-11-15T02:42:44.637Z,8.70
2022-11-15T02:45:33.055Z,8.80
2022-11-15T02:48:18.697Z,8.81
2022-11-15T02:51:03.681Z,8.68
2022-11-15T02:53:48.922Z,8.98
2022-11-15T02:56:34.036Z,8.96
2022-11-15T02:59:36.308Z,8.93
2022-11-15T03:02:27.408Z,8.98
2022-11-15T03:05:26.418Z,8.88
2022-11-15T03:08:18.478Z,8.89
2022-11-15T03:11:14.479Z,8.44
2022-11-15T03:14:02.685Z,8.54
2022-11-15T03:17:00.368Z,8.90
2022-11-15T03:19:47.820Z,8.90
2022-11-15T03:22:36.067Z,9.05
2022-11-15T03:25:23.852Z,8.99
2022-11-15T03:28:11.808Z,8.71
2022-11-15T03:30:57.702Z,8.57
2022-11-15T03:33:43.839Z,8.67
2022-11-15T03:36:29.994Z,8.68
2022-11-15T03:39:20.422Z,8.70
2022-11-15T03:42:05.465Z,8.90
2022-11-15T03:45:03.350Z,8.74
2022-11-15T03:48:03.860Z,8.47
2022-11-15T03:50:49.517Z,8.43
2022-11-15T03:53:34.607Z,8.45
2022-11-15T03:56:19.591Z,8.37
2022-11-15T03:59:04.305Z,8.44
2022-11-15T04:01:49.240Z,8.51
2022-11-15T04:04:34.260Z,8.50
2022-11-15T04:07:19.540Z,8.50
2022-11-15T04:10:06.254Z,8.63
2022-11-15T04:12:51.548Z,8.56
2022-11-15T04:15:36.892Z,8.60
2022-11-15T04:18:21.921Z,8.56
2022-11-15T04:21:25.640Z,8.66
2022-11-15T04:24:13.673Z,8.43
2022-11-15T04:26:58.649Z,8.47
2022-11-15T04:29:43.991Z,8.55
2022-11-15T04:32:29.066Z,8.64
2022-11-15T04:35:14.021Z,8.55
2022-11-15T04:37:59.614Z,8.60
2022-11-15T04:40:44.673Z,8.64
2022-11-15T04:43:30.438Z,8.65
2022-11-15T04:46:15.815Z,8.54
2022-11-15T04:49:00.821Z,8.47
2022-11-15T04:51:46.224Z,8.58
2022-11-15T04:54:31.506Z,8.58
2022-11-15T04:57:16.636Z,8.71
2022-11-15T05:00:02.200Z,8.50
2022-11-15T05:03:05.983Z,8.41
2022-11-15T05:05:53.458Z,8.42
2022-11-15T05:08:38.460Z,8.59
2022-11-15T05:11:23.721Z,8.61
2022-11-15T05:14:08.766Z,8.63
2022-11-15T05:16:55.532Z,8.59
2022-11-15T05:19:40.908Z,8.75
2022-11-15T05:22:26.168Z,8.77
2022-11-15T05:25:11.327Z,8.76
2022-11-15T05:27:56.569Z,8.81
2022-11-15T05:30:41.569Z,8.67
2022-11-15T05:33:26.941Z,9.04
2022-11-15T05:36:21.423Z,8.94
2022-11-15T05:39:09.207Z,9.00
2022-11-15T05:41:57.010Z,8.80
2022-11-15T05:44:45.274Z,8.96
2022-11-15T05:47:30.562Z,8.87
2022-11-15T05:50:17.623Z,8.87
2022-11-15T05:53:05.288Z,8.71
2022-11-15T05:55:50.853Z,8.71
2022-11-15T05:58:36.907Z,8.72
2022-11-15T06:01:22.261Z,8.61
2022-11-15T06:04:07.180Z,8.62
2022-11-15T06:06:52.076Z,8.52
2022-11-15T06:09:37.101Z,8.54
2022-11-15T06:12:21.972Z,8.56
2022-11-15T06:15:07.309Z,8.65
2022-11-15T06:17:52.820Z,8.49
2022-11-15T06:20:38.034Z,8.63
2022-11-15T06:23:23.161Z,8.52
2022-11-15T06:26:08.750Z,8.29
2022-11-15T06:28:54.010Z,8.67
2022-11-15T06:31:38.806Z,8.47
2022-11-15T06:34:23.610Z,8.16
2022-11-15T06:37:08.344Z,8.03
2022-11-15T06:39:53.273Z,8.18
2022-11-15T06:42:38.110Z,8.10
2022-11-15T06:45:23.035Z,8.14
2022-11-15T06:48:08.156Z,8.17
2022-11-15T06:50:56.953Z,8.17
2022-11-15T06:53:42.157Z,8.61
2022-11-15T06:56:27.119Z,8.25
2022-11-15T06:59:12.012Z,8.44
2022-11-15T07:01:57.039Z,8.47
2022-11-15T07:04:41.748Z,8.43
2022-11-15T07:07:26.853Z,8.47
2022-11-15T07:10:12.166Z,8.61
2022-11-15T07:12:57.361Z,8.61
2022-11-15T07:15:42.347Z,8.60
2022-11-15T07:18:28.367Z,8.51
2022-11-15T07:21:13.764Z,8.39
2022-11-15T07:23:58.922Z,8.50
2022-11-15T07:26:43.878Z,8.70
2022-11-15T07:29:29.236Z,8.73
2022-11-15T07:32:14.259Z,8.46
2022-11-15T07:34:59.401Z,8.70
2022-11-15T07:37:44.178Z,8.72
2022-11-15T07:40:30.561Z,8.72
2022-11-15T07:43:15.394Z,8.59
2022-11-15T07:46:00.321Z,8.72
2022-11-15T07:48:45.878Z,8.93
2022-11-15T07:51:30.844Z,9.29
2022-11-15T07:54:15.695Z,9.00
2022-11-15T07:57:05.726Z,8.81
2022-11-15T07:59:52.615Z,9.03
2022-11-15T08:02:37.520Z,9.14
2022-11-15T08:05:22.676Z,8.98
2022-11-15T08:08:08.342Z,8.80
2022-11-15T08:10:53.445Z,8.72
2022-11-15T08:13:38.284Z,8.63
2022-11-15T08:16:23.118Z,8.95
2022-11-15T08:19:08.042Z,8.97
2022-11-15T08:21:53.139Z,9.00
2022-11-15T08:24:38.007Z,9.18
2022-11-15T08:27:23.340Z,9.29
2022-11-15T08:30:08.176Z,9.41
2022-11-15T08:32:54.401Z,9.24
2022-11-15T08:35:39.657Z,9.50
2022-11-15T08:38:24.664Z,9.25
2022-11-15T08:41:31.024Z,9.06
2022-11-15T08:44:15.992Z,9.08
2022-11-15T08:47:00.801Z,9.03
2022-11-15T08:49:45.783Z,9.31
2022-11-15T08:52:30.500Z,9.85
2022-11-15T08:55:17.480Z,9.70
2022-11-15T08:58:02.730Z,9.12
2022-11-15T09:00:47.734Z,9.27
2022-11-15T09:03:33.153Z,9.22
2022-11-15T09:06:18.370Z,9.19
2022-11-15T09:09:04.029Z,9.30
2022-11-15T09:11:49.797Z,9.18
2022-11-15T09:14:35.321Z,9.11
2022-11-15T09:17:24.381Z,9.11
2022-11-15T09:20:10.302Z,9.07
2022-11-15T09:22:55.524Z,9.06
2022-11-15T09:25:40.450Z,9.53
2022-11-15T09:28:25.228Z,9.56
2022-11-15T09:31:10.479Z,9.50
2022-11-15T09:33:55.802Z,9.68
2022-11-15T09:36:41.012Z,9.65
2022-11-15T09:39:25.925Z,9.86
2022-11-15T09:42:20.170Z,9.85
2022-11-15T09:45:08.325Z,9.81
2022-11-15T09:47:59.881Z,10.06
2022-11-15T09:50:49.624Z,10.20
2022-11-15T09:53:47.904Z,10.27
2022-11-15T09:56:23.274Z,10.29
2022-11-15T09:58:49.715Z,10.06
2022-11-15T10:01:20.100Z,9.82
2022-11-15T10:03:46.649Z,10.18
2022-11-15T10:06:24.060Z,10.33
2022-11-15T10:09:02.844Z,10.29
2022-11-15T10:11:39.587Z,10.54
2022-11-15T10:14:14.665Z,10.69
2022-11-15T10:17:00.103Z,10.42
2022-11-15T10:19:35.584Z,10.39
2022-11-15T10:22:20.586Z,10.44
2022-11-15T10:24:47.360Z,10.33
2022-11-15T10:27:15.648Z,10.33
2022-11-15T10:29:51.507Z,10.39
2022-11-15T10:32:19.351Z,10.50
2022-11-15T10:34:46.548Z,10.39
2022-11-15T10:37:13.113Z,10.60
2022-11-15T10:39:39.728Z,10.69
2022-11-15T10:42:17.950Z,10.54
2022-11-15T10:44:45.728Z,10.61
2022-11-15T10:47:23.700Z,10.42
2022-11-15T10:50:00.973Z,10.11
2022-11-15T10:52:27.820Z,10.09
2022-11-15T10:55:03.641Z,10.68
2022-11-15T10:57:36.702Z,10.68
2022-11-15T11:00:06.116Z,10.37
2022-11-15T11:02:40.481Z,10.53
2022-11-15T11:05:26.203Z,10.36
2022-11-15T11:08:00.140Z,10.23
2022-11-15T11:10:50.530Z,10.34
2022-11-15T11:13:14.512Z,10.38
2022-11-15T11:15:42.712Z,10.21
2022-11-15T11:18:16.375Z,10.44
2022-11-15T11:20:46.317Z,10.52
2022-11-15T11:23:19.556Z,10.83
2022-11-15T11:25:52.500Z,10.88
2022-11-15T11:28:30.600Z,10.60
2022-11-15T11:31:05.437Z,10.78
2022-11-15T11:33:33.482Z,11.18
2022-11-15T11:36:18.748Z,10.99
2022-11-15T11:39:03.746Z,11.02
2022-11-15T11:41:43.922Z,10.93
2022-11-15T11:44:16.410Z,10.75
2022-11-15T11:46:48.682Z,10.60
2022-11-15T11:49:38.401Z,10.53
2022-11-15T11:52:20.399Z,10.47
2022-11-15T11:54:55.374Z,10.41
2022-11-15T11:57:42.254Z,10.24
2022-11-15T12:00:18.017Z,10.15
2022-11-15T12:02:48.697Z,10.03
2022-11-15T12:05:28.558Z,10.23
2022-11-15T12:08:01.810Z,10.34
2022-11-15T12:10:31.403Z,10.03
2022-11-15T12:13:02.417Z,10.22
2022-11-15T12:15:32.936Z,10.37
2022-11-15T12:18:01.277Z,9.91
2022-11-15T12:20:29.180Z,9.98
2022-11-15T12:23:07.132Z,10.39
2022-11-15T12:25:38.287Z,10.23
2022-11-15T12:28:14.079Z,10.28
2022-11-15T12:31:06.977Z,10.30
2022-11-15T12:33:33.417Z,9.93
2022-11-15T12:36:01.749Z,9.69
2022-11-15T12:38:47.065Z,9.73
2022-11-15T12:41:20.485Z,9.64
2022-11-15T12:43:48.201Z,9.58
2022-11-15T12:46:22.546Z,9.34
2022-11-15T12:48:50.938Z,9.31
2022-11-15T12:51:18.093Z,9.28
2022-11-15T12:53:44.716Z,9.20
2022-11-15T12:56:15.905Z,9.25
2022-11-15T12:59:14.838Z,9.49
2022-11-15T13:01:41.300Z,9.41
2022-11-15T13:04:20.091Z,9.58
2022-11-15T13:06:51.052Z,9.37
2022-11-15T13:09:29.844Z,9.35
2022-11-15T13:12:04.363Z,9.55
2022-11-15T13:14:41.230Z,9.63
2022-11-15T13:17:20.947Z,9.79
2022-11-15T13:19:48.699Z,9.71
2022-11-15T13:22:34.396Z,9.77
2022-11-15T13:25:04.563Z,9.97
2022-11-15T13:27:31.997Z,10.01
2022-11-15T13:29:58.484Z,9.99
2022-11-15T13:32:25.613Z,10.24
2022-11-15T13:34:53.819Z,10.25
2022-11-15T13:37:23.426Z,9.61
2022-11-15T13:39:50.354Z,9.90
2022-11-15T13:42:17.884Z,10.00
2022-11-15T13:45:00.835Z,10.10
2022-11-15T13:47:28.861Z,10.12
2022-11-15T13:49:57.653Z,10.03
2022-11-15T13:52:26.732Z,10.05
2022-11-15T13:54:59.416Z,10.06
2022-11-15T13:57:28.740Z,9.86
2022-11-15T14:00:03.732Z,10.00
2022-11-15T14:02:38.370Z,9.66
2022-11-15T14:05:19.330Z,9.93
2022-11-15T14:07:56.156Z,10.27
2022-11-15T14:10:30.128Z,10.19
2022-11-15T14:12:56.892Z,10.18
2022-11-15T14:15:29.062Z,9.61
2022-11-15T14:17:55.632Z,9.56
2022-11-15T14:20:39.432Z,9.64
2022-11-15T14:23:19.220Z,9.65
2022-11-15T14:25:59.587Z,9.72
2022-11-15T14:28:26.067Z,9.89
2022-11-15T14:30:54.261Z,9.57
2022-11-15T14:33:20.696Z,9.47
2022-11-15T14:35:47.242Z,9.45
2022-11-15T14:38:14.129Z,9.58
2022-11-15T14:40:40.614Z,9.49
2022-11-15T14:43:09.579Z,9.58
2022-11-15T14:45:36.131Z,9.61
2022-11-15T14:48:02.616Z,9.78
2022-11-15T14:50:29.157Z,9.56
2022-11-15T14:52:55.633Z,9.63
2022-11-15T14:55:24.249Z,9.66
2022-11-15T14:57:51.229Z,9.59
2022-11-15T15:00:17.867Z,9.56
2022-11-15T15:02:45.390Z,9.59
2022-11-15T15:05:16.817Z,9.62
2022-11-15T15:07:43.602Z,9.74
2022-11-15T15:10:38.347Z,9.58
2022-11-15T15:12:57.060Z,9.55
2022-11-15T15:15:25.524Z,9.54
2022-11-15T15:17:51.969Z,9.60
2022-11-15T15:20:18.756Z,9.39
2022-11-15T15:22:45.575Z,9.47
2022-11-15T15:25:27.936Z,9.61
2022-11-15T15:27:55.429Z,9.37
2022-11-15T15:30:22.552Z,9.44
2022-11-15T15:32:49.510Z,9.60
2022-11-15T15:35:16.838Z,9.62
2022-11-15T15:37:44.310Z,9.72
2022-11-15T15:40:16.978Z,9.82
2022-11-15T15:42:43.970Z,9.79
2022-11-15T15:45:10.627Z,9.92
2022-11-15T15:47:37.146Z,9.85
2022-11-15T15:50:04.231Z,9.91
2022-11-15T15:52:30.747Z,9.92
2022-11-15T15:54:57.174Z,9.95
2022-11-15T15:57:23.693Z,9.92
2022-11-15T15:59:50.190Z,10.10
2022-11-15T16:02:16.701Z,10.01
2022-11-15T16:04:43.145Z,10.15
2022-11-15T16:07:16.657Z,10.20
2022-11-15T16:10:01.752Z,9.97
2022-11-15T16:12:28.967Z,10.02
2022-11-15T16:14:55.595Z,10.02
2022-11-15T16:17:23.801Z,9.85
2022-11-15T16:19:50.258Z,10.15
2022-11-15T16:22:16.732Z,10.15
2022-11-15T16:24:43.216Z,9.94
2022-11-15T16:27:15.033Z,9.76
2022-11-15T16:29:41.603Z,9.90
2022-11-15T16:32:08.095Z,9.95
2022-11-15T16:34:39.948Z,10.21
2022-11-15T16:37:16.494Z,10.12
2022-11-15T16:39:43.065Z,10.22
2022-11-15T16:42:09.480Z,10.10
2022-11-15T16:44:35.989Z,10.08
2022-11-15T16:47:02.495Z,9.92
2022-11-15T16:49:28.981Z,9.88
2022-11-15T16:51:55.511Z,9.74
2022-11-15T16:54:22.124Z,9.75
2022-11-15T16:56:48.608Z,9.70
2022-11-15T16:59:16.783Z,9.74
2022-11-15T17:01:52.685Z,9.60
2022-11-15T17:04:19.732Z,9.74
2022-11-15T17:06:47.851Z,9.75
2022-11-15T17:09:18.751Z,9.76
2022-11-15T17:11:45.687Z,9.76
2022-11-15T17:14:12.913Z,9.75
2022-11-15T17:16:42.351Z,9.70
2022-11-15T17:19:13.001Z,9.56
2022-11-15T17:21:39.664Z,9.76
2022-11-15T17:24:06.156Z,9.71
2022-11-15T17:26:36.097Z,9.84
2022-11-15T17:29:04.615Z,9.79
2022-11-15T17:31:33.609Z,9.82
2022-11-15T17:34:04.360Z,9.86
2022-11-15T17:36:30.888Z,9.94
2022-11-15T17:38:59.699Z,9.83
2022-11-15T17:41:27.227Z,9.74
2022-11-15T17:43:53.813Z,9.72
2022-11-15T17:46:21.338Z,9.76
2022-11-15T17:48:48.549Z,9.62
2022-11-15T17:51:16.650Z,9.76
2022-11-15T17:53:45.022Z,9.79
2022-11-15T17:56:12.838Z,9.68
2022-11-15T17:58:39.624Z,9.73
2022-11-15T18:01:13.056Z,9.81
2022-11-15T18:03:39.625Z,9.75
2022-11-15T18:06:06.621Z,9.72
2022-11-15T18:08:35.250Z,9.58
2022-11-15T18:11:05.998Z,9.68
2022-11-15T18:13:32.959Z,9.68
2022-11-15T18:16:02.796Z,9.72
2022-11-15T18:18:30.459Z,9.74
2022-11-15T18:21:04.534Z,9.77
2022-11-15T18:23:31.956Z,9.76
2022-11-15T18:25:59.057Z,9.70
2022-11-15T18:28:36.657Z,9.71
2022-11-15T18:31:04.525Z,9.83
2022-11-15T18:33:37.476Z,9.83
2022-11-15T18:36:05.716Z,9.86
2022-11-15T18:38:32.507Z,9.82
2022-11-15T18:41:04.892Z,9.85
2022-11-15T18:43:31.737Z,9.89
2022-11-15T18:46:04.659Z,9.96
2022-11-15T18:48:32.048Z,9.83
2022-11-15T18:51:05.382Z,9.73
2022-11-15T18:53:32.804Z,9.73
2022-11-15T18:56:03.505Z,9.74
2022-11-15T18:58:30.942Z,9.65
2022-11-15T19:01:01.746Z,9.76
2022-11-15T19:03:31.495Z,9.82
2022-11-15T19:06:05.349Z,9.89
2022-11-15T19:08:35.530Z,9.70
2022-11-15T19:11:12.593Z,9.83
2022-11-15T19:13:39.501Z,9.79
2022-11-15T19:16:06.631Z,9.57
2022-11-15T19:18:33.438Z,9.77
2022-11-15T19:21:03.635Z,9.78
2022-11-15T19:23:33.666Z,9.67
2022-11-15T19:26:01.160Z,9.80
2022-11-15T19:28:28.282Z,9.70
2022-11-15T19:31:02.505Z,9.68
2022-11-15T19:33:29.242Z,9.58
2022-11-15T19:36:03.091Z,9.68
2022-11-15T19:38:33.371Z,9.72
2022-11-15T19:41:00.694Z,9.59
2022-11-15T19:43:27.954Z,9.57
2022-11-15T19:46:02.365Z,10.05
2022-11-15T19:48:32.929Z,9.93
2022-11-15T19:51:03.523Z,9.71
2022-11-15T19:53:35.177Z,9.84
2022-11-15T19:56:03.620Z,9.87
2022-11-15T19:58:30.695Z,9.81
2022-11-15T20:01:07.832Z,9.85
2022-11-15T20:03:35.814Z,9.82
2022-11-15T20:06:05.410Z,9.68
2022-11-15T20:08:32.177Z,9.73
2022-11-15T20:10:59.359Z,9.72
2022-11-15T20:13:25.927Z,9.65
2022-11-15T20:15:52.777Z,9.64
2022-11-15T20:18:19.656Z,9.62
2022-11-15T20:20:47.184Z,9.61
2022-11-15T20:23:13.718Z,9.67
2022-11-15T20:25:40.509Z,9.70
2022-11-15T20:28:07.505Z,9.76
2022-11-15T20:30:34.096Z,9.70
2022-11-15T20:33:00.567Z,9.63
2022-11-15T20:35:27.011Z,9.71
2022-11-15T20:37:53.456Z,9.80
2022-11-15T20:40:19.951Z,9.65
2022-11-15T20:42:46.784Z,9.70
2022-11-15T20:45:13.257Z,9.74
2022-11-15T20:47:39.761Z,9.77
2022-11-15T20:50:35.306Z,9.68
2022-11-15T20:52:53.433Z,9.58
2022-11-15T20:55:19.934Z,9.71
2022-11-15T20:57:46.460Z,9.63
2022-11-15T21:00:13.130Z,9.66
2022-11-15T21:02:39.779Z,9.64
2022-11-15T21:05:06.532Z,9.51
2022-11-15T21:07:33.043Z,9.48
2022-11-15T21:10:18.274Z,9.57
2022-11-15T21:12:44.970Z,9.54
2022-11-15T21:15:11.421Z,9.71
2022-11-15T21:17:37.895Z,9.78
2022-11-15T21:20:04.506Z,9.78
2022-11-15T21:22:31.010Z,9.74
2022-11-15T21:24:59.384Z,9.78
2022-11-15T21:27:26.050Z,9.90
2022-11-15T21:29:52.544Z,9.89
2022-11-15T21:32:19.139Z,9.65
2022-11-15T21:34:45.673Z,9.59
2022-11-15T21:37:12.221Z,9.55
2022-11-15T21:39:39.239Z,9.53
2022-11-15T21:42:05.901Z,9.55
2022-11-15T21:44:32.408Z,9.54
2022-11-15T21:46:58.896Z,9.54
2022-11-15T21:49:25.918Z,9.43
2022-11-15T21:51:52.384Z,9.55
2022-11-15T21:54:18.842Z,9.50
2022-11-15T21:56:45.585Z,9.50
2022-11-15T21:59:12.138Z,9.53
2022-11-15T22:01:57.442Z,9.37
2022-11-15T22:04:24.168Z,9.34
2022-11-15T22:06:50.953Z,9.14
2022-11-15T22:09:17.416Z,9.08
2022-11-15T22:11:43.894Z,9.05
2022-11-15T22:14:10.517Z,9.23
2022-11-15T22:16:37.799Z,9.19
2022-11-15T22:19:04.487Z,9.09
2022-11-15T22:21:31.844Z,9.02
2022-11-15T22:23:58.491Z,9.21
2022-11-15T22:26:25.087Z,9.16
2022-11-15T22:28:51.610Z,9.15
2022-11-15T22:31:19.379Z,9.13
2022-11-15T22:33:46.214Z,9.17
2022-11-15T22:36:13.145Z,9.11
2022-11-15T22:38:39.690Z,9.02
2022-11-15T22:41:06.303Z,9.22
2022-11-15T22:43:33.062Z,9.18
2022-11-15T22:46:00.296Z,9.28
2022-11-15T22:48:29.155Z,9.17
2022-11-15T22:50:55.877Z,9.13
2022-11-15T22:53:22.824Z,9.03
2022-11-15T22:55:50.726Z,9.05
2022-11-15T22:58:17.433Z,9.10
2022-11-15T23:00:43.973Z,9.06
2022-11-15T23:03:10.728Z,9.07
2022-11-15T23:05:37.815Z,9.06
2022-11-15T23:08:04.511Z,9.19
2022-11-15T23:10:49.756Z,9.16
2022-11-15T23:13:16.642Z,9.06
2022-11-15T23:16:06.188Z,9.08
2022-11-15T23:18:34.420Z,9.07
2022-11-15T23:21:07.899Z,9.09
2022-11-15T23:23:35.036Z,9.19
2022-11-15T23:26:01.994Z,9.13
2022-11-15T23:28:29.552Z,9.22
2022-11-15T23:31:20.167Z,9.36
2022-11-15T23:33:58.559Z,9.37
2022-11-15T23:36:25.815Z,9.25
2022-11-15T23:38:52.472Z,9.23
2022-11-15T23:41:19.233Z,9.17
2022-11-15T23:43:46.049Z,9.25
2022-11-15T23:46:12.568Z,9.03
2022-11-15T23:48:39.065Z,9.02
2022-11-15T23:51:05.636Z,9.09
2022-11-15T23:53:32.213Z,8.98
2022-11-15T23:56:03.440Z,8.99
2022-11-15T23:58:30.026Z,8.83
